sensor_id;sensor_type;location;lat;lon;timestamp;temperature;humidity
23729;DHT22;12045;60.214;24.724;2023-02-27T00:00:57;-8.50;99.90
23729;DHT22;12045;60.214;24.724;2023-02-27T00:03:25;-8.10;99.90
23729;DHT22;12045;60.214;24.724;2023-02-27T00:05:53;-7.60;99.90
23729;DHT22;12045;60.214;24.724;2023-02-27T00:08:22;-7.80;99.90
23729;DHT22;12045;60.214;24.724;2023-02-27T00:10:50;-8.00;99.90
23729;DHT22;12045;60.214;24.724;2023-02-27T00:13:17;-8.10;99.90
23729;DHT22;12045;60.214;24.724;2023-02-27T00:15:46;-8.20;99.90
23729;DHT22;12045;60.214;24.724;2023-02-27T00:18:14;-8.50;99.90
23729;DHT22;12045;60.214;24.724;2023-02-27T00:20:41;-7.80;99.90
23729;DHT22;12045;60.214;24.724;2023-02-27T00:23:09;-7.70;99.90
23729;DHT22;12045;60.214;24.724;2023-02-27T00:25:39;-7.20;99.90
23729;DHT22;12045;60.214;24.724;2023-02-27T00:28:06;-7.80;99.90
23729;DHT22;12045;60.214;24.724;2023-02-27T00:30:34;-7.70;99.90
23729;DHT22;12045;60.214;24.724;2023-02-27T00:33:02;-7.70;99.90
23729;DHT22;12045;60.214;24.724;2023-02-27T00:35:29;-8.40;99.90
23729;DHT22;12045;60.214;24.724;2023-02-27T00:37:57;-8.10;99.90
23729;DHT22;12045;60.214;24.724;2023-02-27T00:40:24;-8.30;99.90
23729;DHT22;12045;60.214;24.724;2023-02-27T00:42:52;-8.60;99.90
23729;DHT22;12045;60.214;24.724;2023-02-27T00:45:20;-8.60;99.90
23729;DHT22;12045;60.214;24.724;2023-02-27T00:47:48;-8.70;99.90
23729;DHT22;12045;60.214;24.724;2023-02-27T00:50:15;-8.50;99.90
23729;DHT22;12045;60.214;24.724;2023-02-27T00:52:42;-8.30;99.90
23729;DHT22;12045;60.214;24.724;2023-02-27T00:55:10;-8.40;99.90
23729;DHT22;12045;60.214;24.724;2023-02-27T00:57:38;-8.30;99.90
23729;DHT22;12045;60.214;24.724;2023-02-27T01:00:07;-8.40;99.90
23729;DHT22;12045;60.214;24.724;2023-02-27T01:02:35;-8.10;99.90
23729;DHT22;12045;60.214;24.724;2023-02-27T01:05:03;-7.40;99.90
23729;DHT22;12045;60.214;24.724;2023-02-27T01:07:30;-8.00;99.90
23729;DHT22;12045;60.214;24.724;2023-02-27T01:09:58;-8.30;99.90
23729;DHT22;12045;60.214;24.724;2023-02-27T01:12:25;-8.20;99.90
23729;DHT22;12045;60.214;24.724;2023-02-27T01:14:52;-8.20;99.90
23729;DHT22;12045;60.214;24.724;2023-02-27T01:17:20;-8.30;99.90
23729;DHT22;12045;60.214;24.724;2023-02-27T01:19:47;-8.80;99.90
23729;DHT22;12045;60.214;24.724;2023-02-27T01:22:15;-8.60;99.90
23729;DHT22;12045;60.214;24.724;2023-02-27T01:24:42;-8.80;99.90
23729;DHT22;12045;60.214;24.724;2023-02-27T01:27:10;-9.00;99.90
23729;DHT22;12045;60.214;24.724;2023-02-27T01:29:37;-8.70;99.90
23729;DHT22;12045;60.214;24.724;2023-02-27T01:32:05;-8.90;99.90
23729;DHT22;12045;60.214;24.724;2023-02-27T01:34:35;-9.00;99.90
23729;DHT22;12045;60.214;24.724;2023-02-27T01:37:03;-8.90;99.90
23729;DHT22;12045;60.214;24.724;2023-02-27T01:39:30;-8.80;99.90
23729;DHT22;12045;60.214;24.724;2023-02-27T01:41:59;-8.90;99.90
23729;DHT22;12045;60.214;24.724;2023-02-27T01:44:28;-8.70;99.90
23729;DHT22;12045;60.214;24.724;2023-02-27T01:46:56;-8.80;99.90
23729;DHT22;12045;60.214;24.724;2023-02-27T01:49:30;-8.70;99.90
23729;DHT22;12045;60.214;24.724;2023-02-27T01:52:05;-8.60;99.90
23729;DHT22;12045;60.214;24.724;2023-02-27T01:54:37;-8.70;99.90
23729;DHT22;12045;60.214;24.724;2023-02-27T01:57:05;-8.50;99.90
23729;DHT22;12045;60.214;24.724;2023-02-27T01:59:35;-9.00;99.90
23729;DHT22;12045;60.214;24.724;2023-02-27T02:02:11;-9.30;99.90
23729;DHT22;12045;60.214;24.724;2023-02-27T02:04:41;-10.00;99.90
23729;DHT22;12045;60.214;24.724;2023-02-27T02:07:14;-9.50;99.90
23729;DHT22;12045;60.214;24.724;2023-02-27T02:09:49;-9.40;99.90
23729;DHT22;12045;60.214;24.724;2023-02-27T02:12:20;-9.30;99.90
23729;DHT22;12045;60.214;24.724;2023-02-27T02:14:48;-9.30;99.90
23729;DHT22;12045;60.214;24.724;2023-02-27T02:17:39;-9.10;99.90
23729;DHT22;12045;60.214;24.724;2023-02-27T02:26:26;-9.00;99.90
23729;DHT22;12045;60.214;24.724;2023-02-27T02:41:11;-8.60;99.90
23729;DHT22;12045;60.214;24.724;2023-02-27T02:47:25;-8.70;99.90
23729;DHT22;12045;60.214;24.724;2023-02-27T02:50:11;-8.70;99.90
23729;DHT22;12045;60.214;24.724;2023-02-27T02:58:38;-8.60;99.90
23729;DHT22;12045;60.214;24.724;2023-02-27T03:01:14;-8.70;99.90
23729;DHT22;12045;60.214;24.724;2023-02-27T03:07:44;-8.90;99.90
23729;DHT22;12045;60.214;24.724;2023-02-27T03:10:02;-8.90;99.90
23729;DHT22;12045;60.214;24.724;2023-02-27T03:12:32;-9.40;99.90
23729;DHT22;12045;60.214;24.724;2023-02-27T03:15:14;-9.00;99.90
23729;DHT22;12045;60.214;24.724;2023-02-27T03:18:08;-9.40;99.90
23729;DHT22;12045;60.214;24.724;2023-02-27T03:20:41;-9.50;99.90
23729;DHT22;12045;60.214;24.724;2023-02-27T03:23:20;-9.40;99.90
23729;DHT22;12045;60.214;24.724;2023-02-27T03:25:49;-9.30;99.90
23729;DHT22;12045;60.214;24.724;2023-02-27T03:28:22;-9.50;99.90
23729;DHT22;12045;60.214;24.724;2023-02-27T03:31:07;-9.40;99.90
23729;DHT22;12045;60.214;24.724;2023-02-27T03:33:52;-9.20;99.90
23729;DHT22;12045;60.214;24.724;2023-02-27T03:39:17;-9.50;99.90
23729;DHT22;12045;60.214;24.724;2023-02-27T03:42:14;-9.20;99.90
23729;DHT22;12045;60.214;24.724;2023-02-27T03:47:32;-9.30;99.90
23729;DHT22;12045;60.214;24.724;2023-02-27T03:50:00;-9.40;99.90
23729;DHT22;12045;60.214;24.724;2023-02-27T03:52:28;-9.40;99.90
23729;DHT22;12045;60.214;24.724;2023-02-27T03:55:04;-9.50;99.90
23729;DHT22;12045;60.214;24.724;2023-02-27T04:00:03;-9.40;99.90
23729;DHT22;12045;60.214;24.724;2023-02-27T04:02:32;-9.00;99.90
23729;DHT22;12045;60.214;24.724;2023-02-27T04:04:59;-9.00;99.90
23729;DHT22;12045;60.214;24.724;2023-02-27T04:10:29;-8.80;99.90
23729;DHT22;12045;60.214;24.724;2023-02-27T04:21:18;-8.70;99.90
23729;DHT22;12045;60.214;24.724;2023-02-27T04:26:31;-9.10;99.90
23729;DHT22;12045;60.214;24.724;2023-02-27T04:29:07;-9.40;99.90
23729;DHT22;12045;60.214;24.724;2023-02-27T04:31:44;-9.10;99.90
23729;DHT22;12045;60.214;24.724;2023-02-27T04:34:39;-9.20;99.90
23729;DHT22;12045;60.214;24.724;2023-02-27T04:37:22;-9.70;99.90
23729;DHT22;12045;60.214;24.724;2023-02-27T04:39:59;-9.30;99.90
23729;DHT22;12045;60.214;24.724;2023-02-27T04:42:33;-9.10;99.90
23729;DHT22;12045;60.214;24.724;2023-02-27T04:45:04;-9.20;99.90
23729;DHT22;12045;60.214;24.724;2023-02-27T04:47:46;-9.20;99.90
23729;DHT22;12045;60.214;24.724;2023-02-27T04:51:22;-9.10;99.90
23729;DHT22;12045;60.214;24.724;2023-02-27T04:53:33;-9.00;99.90
23729;DHT22;12045;60.214;24.724;2023-02-27T04:56:08;-9.20;99.90
23729;DHT22;12045;60.214;24.724;2023-02-27T04:58:39;-9.80;99.90
23729;DHT22;12045;60.214;24.724;2023-02-27T05:01:13;-10.10;99.90
23729;DHT22;12045;60.214;24.724;2023-02-27T05:03:46;-8.30;99.90
23729;DHT22;12045;60.214;24.724;2023-02-27T05:06:16;-8.80;99.90
23729;DHT22;12045;60.214;24.724;2023-02-27T05:11:53;-8.40;99.90
23729;DHT22;12045;60.214;24.724;2023-02-27T05:14:42;-8.30;99.90
23729;DHT22;12045;60.214;24.724;2023-02-27T05:17:24;-8.80;99.90
23729;DHT22;12045;60.214;24.724;2023-02-27T05:19:52;-8.70;99.90
23729;DHT22;12045;60.214;24.724;2023-02-27T05:33:35;-8.70;99.90
23729;DHT22;12045;60.214;24.724;2023-02-27T05:38:51;-8.60;99.90
23729;DHT22;12045;60.214;24.724;2023-02-27T05:41:32;-9.00;99.90
23729;DHT22;12045;60.214;24.724;2023-02-27T05:44:14;-8.30;99.90
23729;DHT22;12045;60.214;24.724;2023-02-27T05:46:48;-8.50;99.90
23729;DHT22;12045;60.214;24.724;2023-02-27T05:49:31;-9.10;99.90
23729;DHT22;12045;60.214;24.724;2023-02-27T05:52:02;-8.40;99.90
23729;DHT22;12045;60.214;24.724;2023-02-27T05:54:54;-8.50;99.90
23729;DHT22;12045;60.214;24.724;2023-02-27T06:00:00;-8.80;99.90
23729;DHT22;12045;60.214;24.724;2023-02-27T06:02:29;-8.80;99.90
23729;DHT22;12045;60.214;24.724;2023-02-27T06:04:58;-8.90;99.90
23729;DHT22;12045;60.214;24.724;2023-02-27T06:07:25;-8.80;99.90
23729;DHT22;12045;60.214;24.724;2023-02-27T06:09:57;-9.10;99.90
23729;DHT22;12045;60.214;24.724;2023-02-27T06:12:25;-8.80;99.90
23729;DHT22;12045;60.214;24.724;2023-02-27T06:14:53;-8.80;99.90
23729;DHT22;12045;60.214;24.724;2023-02-27T06:19:56;-8.10;99.90
23729;DHT22;12045;60.214;24.724;2023-02-27T06:22:24;-7.90;99.90
23729;DHT22;12045;60.214;24.724;2023-02-27T06:24:52;-8.40;99.90
23729;DHT22;12045;60.214;24.724;2023-02-27T06:27:20;-8.00;99.90
23729;DHT22;12045;60.214;24.724;2023-02-27T06:29:48;-8.40;99.90
23729;DHT22;12045;60.214;24.724;2023-02-27T06:32:16;-8.60;99.90
23729;DHT22;12045;60.214;24.724;2023-02-27T06:34:44;-8.20;99.90
23729;DHT22;12045;60.214;24.724;2023-02-27T06:37:14;-8.70;99.90
23729;DHT22;12045;60.214;24.724;2023-02-27T06:39:46;-8.20;99.90
23729;DHT22;12045;60.214;24.724;2023-02-27T06:42:16;-7.90;99.90
23729;DHT22;12045;60.214;24.724;2023-02-27T06:49:49;-7.40;99.90
23729;DHT22;12045;60.214;24.724;2023-02-27T06:52:25;-7.10;99.90
23729;DHT22;12045;60.214;24.724;2023-02-27T06:57:29;-7.00;99.90
23729;DHT22;12045;60.214;24.724;2023-02-27T06:59:57;-7.00;99.90
23729;DHT22;12045;60.214;24.724;2023-02-27T07:02:29;-6.80;99.90
23729;DHT22;12045;60.214;24.724;2023-02-27T07:04:57;-6.70;99.90
23729;DHT22;12045;60.214;24.724;2023-02-27T07:07:35;-6.90;99.90
23729;DHT22;12045;60.214;24.724;2023-02-27T07:10:06;-6.30;99.90
23729;DHT22;12045;60.214;24.724;2023-02-27T07:12:36;-6.30;99.90
23729;DHT22;12045;60.214;24.724;2023-02-27T07:15:05;-6.40;99.90
23729;DHT22;12045;60.214;24.724;2023-02-27T07:17:34;-6.50;99.90
23729;DHT22;12045;60.214;24.724;2023-02-27T07:20:05;-6.40;99.90
23729;DHT22;12045;60.214;24.724;2023-02-27T07:22:35;-6.90;99.90
23729;DHT22;12045;60.214;24.724;2023-02-27T07:25:04;-6.10;99.90
23729;DHT22;12045;60.214;24.724;2023-02-27T07:30:06;-5.90;99.90
23729;DHT22;12045;60.214;24.724;2023-02-27T07:32:34;-5.20;99.90
23729;DHT22;12045;60.214;24.724;2023-02-27T07:35:03;-5.60;99.90
23729;DHT22;12045;60.214;24.724;2023-02-27T07:37:31;-5.60;99.90
23729;DHT22;12045;60.214;24.724;2023-02-27T07:39:59;-5.60;99.90
23729;DHT22;12045;60.214;24.724;2023-02-27T07:42:28;-5.50;99.90
23729;DHT22;12045;60.214;24.724;2023-02-27T07:47:26;-5.60;99.90
23729;DHT22;12045;60.214;24.724;2023-02-27T07:49:57;-5.70;99.90
23729;DHT22;12045;60.214;24.724;2023-02-27T07:52:29;-4.70;99.90
23729;DHT22;12045;60.214;24.724;2023-02-27T07:54:58;-4.50;99.90
23729;DHT22;12045;60.214;24.724;2023-02-27T07:57:29;-5.10;99.90
23729;DHT22;12045;60.214;24.724;2023-02-27T07:59:57;-4.90;99.90
23729;DHT22;12045;60.214;24.724;2023-02-27T08:02:25;-4.80;99.90
23729;DHT22;12045;60.214;24.724;2023-02-27T08:04:53;-5.30;99.90
23729;DHT22;12045;60.214;24.724;2023-02-27T08:07:21;-5.30;99.90
23729;DHT22;12045;60.214;24.724;2023-02-27T08:09:49;-4.90;99.90
23729;DHT22;12045;60.214;24.724;2023-02-27T08:12:18;-4.80;99.90
23729;DHT22;12045;60.214;24.724;2023-02-27T08:14:46;-4.80;99.90
23729;DHT22;12045;60.214;24.724;2023-02-27T08:17:14;-4.70;99.90
23729;DHT22;12045;60.214;24.724;2023-02-27T08:19:42;-5.00;99.90
23729;DHT22;12045;60.214;24.724;2023-02-27T08:22:10;-4.40;99.90
23729;DHT22;12045;60.214;24.724;2023-02-27T08:24:43;-4.20;99.90
23729;DHT22;12045;60.214;24.724;2023-02-27T08:27:11;-3.80;99.90
23729;DHT22;12045;60.214;24.724;2023-02-27T08:29:40;-4.20;99.90
23729;DHT22;12045;60.214;24.724;2023-02-27T08:32:08;-5.00;99.90
23729;DHT22;12045;60.214;24.724;2023-02-27T08:34:36;-3.80;99.90
23729;DHT22;12045;60.214;24.724;2023-02-27T08:37:04;-4.00;99.90
23729;DHT22;12045;60.214;24.724;2023-02-27T08:39:35;-3.20;99.90
23729;DHT22;12045;60.214;24.724;2023-02-27T08:42:06;-3.50;99.90
23729;DHT22;12045;60.214;24.724;2023-02-27T08:44:36;-3.00;99.90
23729;DHT22;12045;60.214;24.724;2023-02-27T08:47:04;-4.10;99.90
23729;DHT22;12045;60.214;24.724;2023-02-27T08:49:32;-4.10;99.90
23729;DHT22;12045;60.214;24.724;2023-02-27T08:52:00;-4.40;99.90
23729;DHT22;12045;60.214;24.724;2023-02-27T08:54:30;-4.20;99.90
23729;DHT22;12045;60.214;24.724;2023-02-27T08:56:59;-4.30;99.90
23729;DHT22;12045;60.214;24.724;2023-02-27T09:02:01;-2.90;99.90
23729;DHT22;12045;60.214;24.724;2023-02-27T09:04:36;-3.30;99.90
23729;DHT22;12045;60.214;24.724;2023-02-27T09:07:05;-3.40;99.90
23729;DHT22;12045;60.214;24.724;2023-02-27T09:09:33;-3.40;99.90
23729;DHT22;12045;60.214;24.724;2023-02-27T09:12:00;-3.40;99.90
23729;DHT22;12045;60.214;24.724;2023-02-27T09:14:28;-3.40;99.90
23729;DHT22;12045;60.214;24.724;2023-02-27T09:16:57;-3.90;99.90
23729;DHT22;12045;60.214;24.724;2023-02-27T09:19:27;-2.80;99.90
23729;DHT22;12045;60.214;24.724;2023-02-27T09:21:55;-3.50;99.90
23729;DHT22;12045;60.214;24.724;2023-02-27T09:24:23;-2.90;99.90
23729;DHT22;12045;60.214;24.724;2023-02-27T09:26:51;-2.70;99.90
23729;DHT22;12045;60.214;24.724;2023-02-27T09:29:20;-2.70;99.90
23729;DHT22;12045;60.214;24.724;2023-02-27T09:31:50;-2.20;99.90
23729;DHT22;12045;60.214;24.724;2023-02-27T09:34:18;-1.90;99.90
23729;DHT22;12045;60.214;24.724;2023-02-27T09:36:46;-2.40;99.90
23729;DHT22;12045;60.214;24.724;2023-02-27T09:39:14;-2.30;99.90
23729;DHT22;12045;60.214;24.724;2023-02-27T09:42:04;-2.20;99.90
23729;DHT22;12045;60.214;24.724;2023-02-27T09:44:57;-2.80;99.90
23729;DHT22;12045;60.214;24.724;2023-02-27T09:47:46;-2.50;99.90
23729;DHT22;12045;60.214;24.724;2023-02-27T09:50:42;-1.30;99.90
23729;DHT22;12045;60.214;24.724;2023-02-27T09:53:24;-2.20;99.90
23729;DHT22;12045;60.214;24.724;2023-02-27T09:56:02;-2.20;99.90
23729;DHT22;12045;60.214;24.724;2023-02-27T09:58:50;-2.50;99.90
23729;DHT22;12045;60.214;24.724;2023-02-27T10:06:57;-2.30;99.90
23729;DHT22;12045;60.214;24.724;2023-02-27T10:09:38;-2.40;99.90
23729;DHT22;12045;60.214;24.724;2023-02-27T10:15:30;-1.80;99.90
23729;DHT22;12045;60.214;24.724;2023-02-27T10:20:46;-1.90;99.90
23729;DHT22;12045;60.214;24.724;2023-02-27T10:23:18;-1.60;99.90
23729;DHT22;12045;60.214;24.724;2023-02-27T10:25:49;-1.70;99.90
23729;DHT22;12045;60.214;24.724;2023-02-27T10:28:19;-0.40;99.90
23729;DHT22;12045;60.214;24.724;2023-02-27T10:30:49;-0.30;99.90
23729;DHT22;12045;60.214;24.724;2023-02-27T10:33:41;0.50;99.90
23729;DHT22;12045;60.214;24.724;2023-02-27T10:36:10;-1.70;99.90
23729;DHT22;12045;60.214;24.724;2023-02-27T10:39:05;-1.20;99.90
23729;DHT22;12045;60.214;24.724;2023-02-27T10:41:34;-2.60;99.90
23729;DHT22;12045;60.214;24.724;2023-02-27T10:44:03;-1.40;99.90
23729;DHT22;12045;60.214;24.724;2023-02-27T10:46:34;-1.10;99.90
23729;DHT22;12045;60.214;24.724;2023-02-27T10:49:19;-2.20;99.90
23729;DHT22;12045;60.214;24.724;2023-02-27T10:52:08;-1.70;99.90
23729;DHT22;12045;60.214;24.724;2023-02-27T10:54:37;-0.70;99.90
23729;DHT22;12045;60.214;24.724;2023-02-27T10:59:53;-1.00;99.90
23729;DHT22;12045;60.214;24.724;2023-02-27T11:02:25;-1.40;99.90
23729;DHT22;12045;60.214;24.724;2023-02-27T11:04:56;-0.70;99.90
23729;DHT22;12045;60.214;24.724;2023-02-27T11:07:37;-0.70;99.90
23729;DHT22;12045;60.214;24.724;2023-02-27T11:10:26;-0.60;99.90
23729;DHT22;12045;60.214;24.724;2023-02-27T11:15:37;-0.60;99.90
23729;DHT22;12045;60.214;24.724;2023-02-27T11:18:26;-1.20;99.90
23729;DHT22;12045;60.214;24.724;2023-02-27T11:21:21;-0.60;99.90
23729;DHT22;12045;60.214;24.724;2023-02-27T11:24:03;-0.10;99.90
23729;DHT22;12045;60.214;24.724;2023-02-27T11:26:55;0.00;99.90
23729;DHT22;12045;60.214;24.724;2023-02-27T11:29:23;-1.00;99.90
23729;DHT22;12045;60.214;24.724;2023-02-27T11:35:47;-0.20;99.90
23729;DHT22;12045;60.214;24.724;2023-02-27T11:38:33;0.40;99.90
23729;DHT22;12045;60.214;24.724;2023-02-27T11:41:03;-0.40;99.90
23729;DHT22;12045;60.214;24.724;2023-02-27T11:43:38;0.10;99.90
23729;DHT22;12045;60.214;24.724;2023-02-27T11:46:11;0.20;99.90
23729;DHT22;12045;60.214;24.724;2023-02-27T11:49:18;0.40;99.90
23729;DHT22;12045;60.214;24.724;2023-02-27T11:52:02;0.40;99.90
23729;DHT22;12045;60.214;24.724;2023-02-27T11:54:41;0.30;99.90
23729;DHT22;12045;60.214;24.724;2023-02-27T12:05:11;0.40;99.90
23729;DHT22;12045;60.214;24.724;2023-02-27T12:07:58;1.00;99.90
23729;DHT22;12045;60.214;24.724;2023-02-27T12:10:57;1.00;99.90
23729;DHT22;12045;60.214;24.724;2023-02-27T12:13:44;0.90;99.90
23729;DHT22;12045;60.214;24.724;2023-02-27T12:21:55;1.10;99.90
23729;DHT22;12045;60.214;24.724;2023-02-27T12:24:29;1.40;99.90
23729;DHT22;12045;60.214;24.724;2023-02-27T12:29:45;0.70;99.90
23729;DHT22;12045;60.214;24.724;2023-02-27T12:32:32;0.70;99.90
23729;DHT22;12045;60.214;24.724;2023-02-27T12:35:15;1.20;99.90
23729;DHT22;12045;60.214;24.724;2023-02-27T12:37:43;1.50;99.90
23729;DHT22;12045;60.214;24.724;2023-02-27T12:42:58;1.50;99.90
23729;DHT22;12045;60.214;24.724;2023-02-27T12:48:26;1.50;99.90
23729;DHT22;12045;60.214;24.724;2023-02-27T12:53:50;0.70;99.90
23729;DHT22;12045;60.214;24.724;2023-02-27T12:56:23;1.40;99.90
23729;DHT22;12045;60.214;24.724;2023-02-27T12:59:23;1.70;99.90
23729;DHT22;12045;60.214;24.724;2023-02-27T13:02:16;1.30;99.90
23729;DHT22;12045;60.214;24.724;2023-02-27T13:04:59;0.80;99.90
23729;DHT22;12045;60.214;24.724;2023-02-27T13:07:36;2.80;99.90
23729;DHT22;12045;60.214;24.724;2023-02-27T13:15:57;1.30;99.90
23729;DHT22;12045;60.214;24.724;2023-02-27T13:18:36;1.60;99.90
23729;DHT22;12045;60.214;24.724;2023-02-27T13:21:11;1.60;99.90
23729;DHT22;12045;60.214;24.724;2023-02-27T13:29:41;2.20;99.90
23729;DHT22;12045;60.214;24.724;2023-02-27T13:43:58;2.00;99.90
23729;DHT22;12045;60.214;24.724;2023-02-27T13:54:23;2.00;99.90
23729;DHT22;12045;60.214;24.724;2023-02-27T13:59:30;3.00;99.90
23729;DHT22;12045;60.214;24.724;2023-02-27T14:07:00;2.00;99.90
23729;DHT22;12045;60.214;24.724;2023-02-27T14:09:33;2.80;99.90
23729;DHT22;12045;60.214;24.724;2023-02-27T14:12:05;2.60;99.90
23729;DHT22;12045;60.214;24.724;2023-02-27T14:14:43;1.40;99.90
23729;DHT22;12045;60.214;24.724;2023-02-27T14:17:13;1.90;99.90
23729;DHT22;12045;60.214;24.724;2023-02-27T14:23:19;2.10;99.90
23729;DHT22;12045;60.214;24.724;2023-02-27T14:26:14;2.10;99.90
23729;DHT22;12045;60.214;24.724;2023-02-27T14:28:52;2.70;99.90
23729;DHT22;12045;60.214;24.724;2023-02-27T14:33:55;2.30;99.90
23729;DHT22;12045;60.214;24.724;2023-02-27T14:36:28;2.20;99.90
23729;DHT22;12045;60.214;24.724;2023-02-27T14:38:59;3.40;99.90
23729;DHT22;12045;60.214;24.724;2023-02-27T14:43:57;2.20;99.90
23729;DHT22;12045;60.214;24.724;2023-02-27T14:49:07;2.20;99.90
23729;DHT22;12045;60.214;24.724;2023-02-27T14:51:43;3.10;99.90
23729;DHT22;12045;60.214;24.724;2023-02-27T14:54:19;2.20;99.90
23729;DHT22;12045;60.214;24.724;2023-02-27T14:56:59;2.50;99.90
23729;DHT22;12045;60.214;24.724;2023-02-27T14:59:40;1.70;99.90
23729;DHT22;12045;60.214;24.724;2023-02-27T15:02:17;2.90;99.90
23729;DHT22;12045;60.214;24.724;2023-02-27T15:04:46;2.90;99.90
23729;DHT22;12045;60.214;24.724;2023-02-27T15:07:19;2.30;99.90
23729;DHT22;12045;60.214;24.724;2023-02-27T15:09:57;2.80;99.90
23729;DHT22;12045;60.214;24.724;2023-02-27T15:12:26;3.20;99.90
23729;DHT22;12045;60.214;24.724;2023-02-27T15:14:59;2.50;99.90
23729;DHT22;12045;60.214;24.724;2023-02-27T15:17:37;3.20;99.90
23729;DHT22;12045;60.214;24.724;2023-02-27T15:23:01;2.00;99.90
23729;DHT22;12045;60.214;24.724;2023-02-27T15:25:38;2.30;99.90
23729;DHT22;12045;60.214;24.724;2023-02-27T15:28:15;3.20;99.90
23729;DHT22;12045;60.214;24.724;2023-02-27T15:30:48;2.20;99.90
23729;DHT22;12045;60.214;24.724;2023-02-27T15:33:16;2.40;99.90
23729;DHT22;12045;60.214;24.724;2023-02-27T15:35:45;2.30;99.90
23729;DHT22;12045;60.214;24.724;2023-02-27T15:38:27;1.50;99.90
23729;DHT22;12045;60.214;24.724;2023-02-27T15:40:56;2.40;99.90
23729;DHT22;12045;60.214;24.724;2023-02-27T15:43:26;3.40;99.90
23729;DHT22;12045;60.214;24.724;2023-02-27T15:45:55;3.20;99.90
23729;DHT22;12045;60.214;24.724;2023-02-27T15:48:24;2.20;99.90
23729;DHT22;12045;60.214;24.724;2023-02-27T15:50:57;1.80;99.90
23729;DHT22;12045;60.214;24.724;2023-02-27T15:53:29;3.10;99.90
23729;DHT22;12045;60.214;24.724;2023-02-27T15:56:03;2.10;99.90
23729;DHT22;12045;60.214;24.724;2023-02-27T15:58:34;1.80;99.90
23729;DHT22;12045;60.214;24.724;2023-02-27T16:01:09;2.20;99.90
23729;DHT22;12045;60.214;24.724;2023-02-27T16:03:50;3.50;99.90
23729;DHT22;12045;60.214;24.724;2023-02-27T16:11:41;2.10;99.90
23729;DHT22;12045;60.214;24.724;2023-02-27T16:14:40;1.80;99.90
23729;DHT22;12045;60.214;24.724;2023-02-27T16:22:22;2.00;99.90
23729;DHT22;12045;60.214;24.724;2023-02-27T16:24:50;1.80;99.90
23729;DHT22;12045;60.214;24.724;2023-02-27T16:27:24;2.10;99.90
23729;DHT22;12045;60.214;24.724;2023-02-27T16:29:54;2.00;99.90
23729;DHT22;12045;60.214;24.724;2023-02-27T16:32:27;1.90;99.90
23729;DHT22;12045;60.214;24.724;2023-02-27T16:35:12;1.70;99.90
23729;DHT22;12045;60.214;24.724;2023-02-27T16:37:43;1.90;99.90
23729;DHT22;12045;60.214;24.724;2023-02-27T16:42:42;1.80;99.90
23729;DHT22;12045;60.214;24.724;2023-02-27T16:45:14;2.20;99.90
23729;DHT22;12045;60.214;24.724;2023-02-27T16:47:42;1.90;99.90
23729;DHT22;12045;60.214;24.724;2023-02-27T16:50:23;2.00;99.90
23729;DHT22;12045;60.214;24.724;2023-02-27T16:52:51;2.10;99.90
23729;DHT22;12045;60.214;24.724;2023-02-27T16:55:18;1.90;99.90
23729;DHT22;12045;60.214;24.724;2023-02-27T16:57:46;1.30;99.90
23729;DHT22;12045;60.214;24.724;2023-02-27T17:00:15;2.00;99.90
23729;DHT22;12045;60.214;24.724;2023-02-27T17:02:42;2.10;99.90
23729;DHT22;12045;60.214;24.724;2023-02-27T17:05:10;2.10;99.90
23729;DHT22;12045;60.214;24.724;2023-02-27T17:07:38;1.90;99.90
23729;DHT22;12045;60.214;24.724;2023-02-27T17:10:05;2.10;99.90
23729;DHT22;12045;60.214;24.724;2023-02-27T17:12:33;2.00;99.90
23729;DHT22;12045;60.214;24.724;2023-02-27T17:15:01;1.60;99.90
23729;DHT22;12045;60.214;24.724;2023-02-27T17:17:28;1.70;99.90
23729;DHT22;12045;60.214;24.724;2023-02-27T17:19:55;2.10;99.90
23729;DHT22;12045;60.214;24.724;2023-02-27T17:22:23;2.10;99.90
23729;DHT22;12045;60.214;24.724;2023-02-27T17:24:50;2.20;99.90
23729;DHT22;12045;60.214;24.724;2023-02-27T17:27:18;2.10;99.90
23729;DHT22;12045;60.214;24.724;2023-02-27T17:29:45;2.20;99.90
23729;DHT22;12045;60.214;24.724;2023-02-27T17:32:12;2.40;99.90
23729;DHT22;12045;60.214;24.724;2023-02-27T17:34:40;3.20;99.90
23729;DHT22;12045;60.214;24.724;2023-02-27T17:37:08;3.40;99.90
23729;DHT22;12045;60.214;24.724;2023-02-27T17:39:36;2.40;99.90
23729;DHT22;12045;60.214;24.724;2023-02-27T17:42:04;2.30;99.90
23729;DHT22;12045;60.214;24.724;2023-02-27T17:44:31;1.90;99.90
23729;DHT22;12045;60.214;24.724;2023-02-27T17:46:58;2.30;99.90
23729;DHT22;12045;60.214;24.724;2023-02-27T17:49:26;2.30;99.90
23729;DHT22;12045;60.214;24.724;2023-02-27T17:51:53;3.50;99.90
23729;DHT22;12045;60.214;24.724;2023-02-27T17:54:21;2.60;99.90
23729;DHT22;12045;60.214;24.724;2023-02-27T17:56:48;2.40;99.90
23729;DHT22;12045;60.214;24.724;2023-02-27T17:59:16;2.30;99.90
23729;DHT22;12045;60.214;24.724;2023-02-27T18:01:44;0.60;99.90
23729;DHT22;12045;60.214;24.724;2023-02-27T18:04:11;3.10;99.90
23729;DHT22;12045;60.214;24.724;2023-02-27T18:06:40;2.50;99.90
23729;DHT22;12045;60.214;24.724;2023-02-27T18:09:07;2.50;99.90
23729;DHT22;12045;60.214;24.724;2023-02-27T18:11:35;2.40;99.90
23729;DHT22;12045;60.214;24.724;2023-02-27T18:14:04;2.40;99.90
23729;DHT22;12045;60.214;24.724;2023-02-27T18:16:32;3.60;99.90
23729;DHT22;12045;60.214;24.724;2023-02-27T18:19:04;2.40;99.90
23729;DHT22;12045;60.214;24.724;2023-02-27T18:21:32;3.30;99.90
23729;DHT22;12045;60.214;24.724;2023-02-27T18:24:00;3.70;99.90
23729;DHT22;12045;60.214;24.724;2023-02-27T18:26:30;2.30;99.90
23729;DHT22;12045;60.214;24.724;2023-02-27T18:29:03;3.40;99.90
23729;DHT22;12045;60.214;24.724;2023-02-27T18:31:34;3.20;99.90
23729;DHT22;12045;60.214;24.724;2023-02-27T18:34:02;3.60;99.90
23729;DHT22;12045;60.214;24.724;2023-02-27T18:36:30;2.40;99.90
23729;DHT22;12045;60.214;24.724;2023-02-27T18:38:59;3.70;99.90
23729;DHT22;12045;60.214;24.724;2023-02-27T18:41:27;3.10;99.90
23729;DHT22;12045;60.214;24.724;2023-02-27T18:43:55;2.80;99.90
23729;DHT22;12045;60.214;24.724;2023-02-27T18:46:24;2.40;99.90
23729;DHT22;12045;60.214;24.724;2023-02-27T18:48:52;3.30;99.90
23729;DHT22;12045;60.214;24.724;2023-02-27T18:51:19;3.40;99.90
23729;DHT22;12045;60.214;24.724;2023-02-27T18:53:48;3.20;99.90
23729;DHT22;12045;60.214;24.724;2023-02-27T18:56:19;3.00;99.90
23729;DHT22;12045;60.214;24.724;2023-02-27T18:58:48;3.30;99.90
23729;DHT22;12045;60.214;24.724;2023-02-27T19:01:20;3.00;99.90
23729;DHT22;12045;60.214;24.724;2023-02-27T19:03:49;3.80;99.90
23729;DHT22;12045;60.214;24.724;2023-02-27T19:06:17;2.40;99.90
23729;DHT22;12045;60.214;24.724;2023-02-27T19:08:45;2.20;99.90
23729;DHT22;12045;60.214;24.724;2023-02-27T19:11:29;3.10;99.90
23729;DHT22;12045;60.214;24.724;2023-02-27T19:14:01;2.90;99.90
23729;DHT22;12045;60.214;24.724;2023-02-27T19:16:29;3.20;99.90
23729;DHT22;12045;60.214;24.724;2023-02-27T19:21:27;2.40;99.90